Time;durP1;ratioP1;P1;durP2;ratioP2;P2;SDS_P1;SDS_P2;PMS_P1;PMS_P2;Temp;Humidity;BMP_temperature;BMP_pressure;BME280_temperature;BME280_humidity;BME280_pressure;Samples;Min_cycle;Max_cycle;Signal;HPM_P1;HPM_P2
2021/10/13 00:01:48;;;;;;;;;;;;;;;10.82;83.82;99527.69;5088883;28;19916;-19
2021/10/13 00:04:13;;;;;;;;;;;;;;;10.75;83.78;99535.00;5089035;28;19930;-19
2021/10/13 00:06:39;;;;;;;;;;;;;;;10.73;83.50;99534.44;5088936;28;20019;-19
2021/10/13 00:09:04;;;;;;;;;;;;;;;10.41;84.45;99534.75;5088759;28;19916;-19
2021/10/13 00:11:29;;;;;;;;;;;;;;;10.57;84.23;99527.13;5089406;28;19950;-19
2021/10/13 00:13:54;;;;;;;;;;;;;;;10.35;84.23;99535.69;5089332;28;19919;-19
2021/10/13 00:16:20;;;;;;;;;;;;;;;10.31;84.24;99528.38;5089157;28;19912;-20
2021/10/13 00:18:45;;;;;;;;;;;;;;;10.27;84.54;99534.13;5093007;28;19916;-19
2021/10/13 00:21:10;;;;;;;;;;;;;;;10.18;83.99;99537.38;5092877;28;19912;-19
2021/10/13 00:23:36;;;;;;;;;;;;;;;10.18;84.66;99529.38;5092416;28;19923;-19
2021/10/13 00:26:01;;;;;;;;;;;;;;;9.92;84.47;99531.41;5092892;28;20302;-19
2021/10/13 00:28:26;;;;;;;;;;;;;;;10.03;85.18;99533.31;5092707;28;20400;-19
2021/10/13 00:30:51;;;;;;;;;;;;;;;9.94;84.41;99525.84;5092520;28;19912;-19
2021/10/13 00:33:17;;;;;;;;;;;;;;;9.85;84.45;99533.38;5074166;28;19912;-19
2021/10/13 00:35:42;;;;;;;;;;;;;;;9.90;84.80;99527.34;5092406;28;20493;-19
2021/10/13 00:38:07;;;;;;;;;;;;;;;9.82;85.22;99531.16;5092138;28;19941;-19
2021/10/13 00:40:32;;;;;;;;;;;;;;;9.95;84.93;99525.63;5092576;28;19920;-19
2021/10/13 00:42:58;;;;;;;;;;;;;;;9.85;84.71;99526.19;5073989;28;19915;-19
2021/10/13 00:45:23;;;;;;;;;;;;;;;9.89;84.65;99521.22;5092670;28;20049;-19
2021/10/13 00:47:48;;;;;;;;;;;;;;;9.82;84.83;99520.50;5092182;28;19919;-20
2021/10/13 00:50:14;;;;;;;;;;;;;;;9.81;84.92;99530.34;5092490;28;19912;-19
2021/10/13 00:52:40;;;;;;;;;;;;;;;9.91;85.16;99527.13;5092081;28;19961;-19
2021/10/13 00:55:09;;;;;;;;;;;;;;;9.89;84.64;99523.88;5091735;28;19916;-19
2021/10/13 00:57:34;;;;;;;;;;;;;;;10.07;84.68;99525.63;5092295;28;19916;-19
2021/10/13 00:59:59;;;;;;;;;;;;;;;10.12;83.54;99535.63;5091999;28;20058;-19
2021/10/13 01:02:35;;;;;;;;;;;;;;;10.03;83.29;99522.66;5092045;28;19923;-20
2021/10/13 01:05:19;;;;;;;;;;;;;;;9.85;83.99;99528.84;5073731;28;20330;-19
2021/10/13 01:07:48;;;;;;;;;;;;;;;9.95;83.99;99524.81;5092216;28;19919;-24
2021/10/13 01:10:20;;;;;;;;;;;;;;;9.85;83.99;99533.38;5091690;28;20065;-19
2021/10/13 01:12:57;;;;;;;;;;;;;;;9.83;83.76;99530.13;5073582;28;19960;-19
2021/10/13 01:15:25;;;;;;;;;;;;;;;9.82;83.47;99525.81;5091629;28;19995;-19
2021/10/13 01:17:51;;;;;;;;;;;;;;;9.93;83.63;99526.88;5091466;28;19912;-19
2021/10/13 01:20:22;;;;;;;;;;;;;;;9.90;82.75;99533.47;5091763;28;19912;-19
2021/10/13 01:22:54;;;;;;;;;;;;;;;9.81;83.54;99527.69;5091734;28;19912;-20
2021/10/13 01:25:37;;;;;;;;;;;;;;;9.85;82.47;99536.03;5073257;28;19920;-19
2021/10/13 01:28:02;;;;;;;;;;;;;;;9.88;82.26;99532.09;5073664;28;19923;-19
2021/10/13 01:30:36;;;;;;;;;;;;;;;9.85;82.96;99533.38;5073270;28;19912;-19
2021/10/13 01:33:08;;;;;;;;;;;;;;;9.73;82.67;99528.00;5072970;28;19919;-19
2021/10/13 01:35:34;;;;;;;;;;;;;;;9.85;82.78;99536.03;5091559;28;19928;-19
2021/10/13 01:38:00;;;;;;;;;;;;;;;9.78;82.68;99538.75;5073221;28;20006;-19
2021/10/13 01:40:27;;;;;;;;;;;;;;;9.74;82.55;99542.13;5073192;28;20375;-19
2021/10/13 01:42:53;;;;;;;;;;;;;;;9.65;82.25;99539.78;5090870;28;19916;-19
2021/10/13 01:45:18;;;;;;;;;;;;;;;9.65;82.45;99539.78;5091188;28;20299;-19
2021/10/13 01:47:47;;;;;;;;;;;;;;;9.74;82.23;99536.78;5072994;28;20323;-19
2021/10/13 01:50:12;;;;;;;;;;;;;;;9.83;81.45;99538.91;5090796;28;20395;-19
2021/10/13 01:52:37;;;;;;;;;;;;;;;9.81;81.65;99545.50;5072908;28;19979;-19
2021/10/13 01:55:03;;;;;;;;;;;;;;;9.77;81.90;99545.16;5076690;28;20048;-20
2021/10/13 01:57:28;;;;;;;;;;;;;;;9.71;81.87;99555.91;5111327;28;20288;-19
2021/10/13 01:59:56;;;;;;;;;;;;;;;9.62;82.18;99550.88;5111385;28;19912;-19
2021/10/13 02:02:24;;;;;;;;;;;;;;;9.71;81.03;99555.91;5111616;28;19922;-20
2021/10/13 02:04:49;;;;;;;;;;;;;;;9.77;81.88;99552.34;5092554;28;20387;-20
2021/10/13 02:07:15;;;;;;;;;;;;;;;9.93;80.47;99548.19;5111396;28;19912;-19
2021/10/13 02:09:40;;;;;;;;;;;;;;;9.72;81.63;99552.19;5110989;28;19916;-19
2021/10/13 02:12:06;;;;;;;;;;;;;;;9.83;81.12;99552.22;5111016;28;19919;-19
2021/10/13 02:14:31;;;;;;;;;;;;;;;9.62;80.91;99558.88;5092793;28;20408;-19
2021/10/13 02:16:56;;;;;;;;;;;;;;;9.64;82.12;99561.28;5092813;28;20496;-19
2021/10/13 02:19:21;;;;;;;;;;;;;;;9.49;82.06;99552.91;5092966;28;20370;-18
2021/10/13 02:21:47;;;;;;;;;;;;;;;9.56;80.95;99558.94;5092920;28;19915;-19
2021/10/13 02:24:14;;;;;;;;;;;;;;;9.62;81.39;99553.53;5110875;28;19915;-19
2021/10/13 02:26:43;;;;;;;;;;;;;;;9.57;80.96;99561.38;5092599;28;20068;-19
2021/10/13 02:29:12;;;;;;;;;;;;;;;9.59;81.01;99558.50;5092369;28;19912;-19
2021/10/13 02:31:38;;;;;;;;;;;;;;;9.54;80.99;99561.84;5110629;28;19915;-19
2021/10/13 02:34:03;;;;;;;;;;;;;;;9.68;81.03;99569.66;5110490;28;20307;-19
2021/10/13 02:36:28;;;;;;;;;;;;;;;9.83;80.60;99564.75;5110481;28;19969;-19
2021/10/13 02:38:53;;;;;;;;;;;;;;;9.66;80.50;99564.53;5109991;28;19922;-19
2021/10/13 02:41:19;;;;;;;;;;;;;;;9.57;80.70;99572.03;5110231;28;19958;-19
2021/10/13 02:43:44;;;;;;;;;;;;;;;9.55;80.38;99583.94;5110453;28;19915;-19
2021/10/13 02:46:13;;;;;;;;;;;;;;;9.59;81.18;99579.78;5110406;28;20310;-19
2021/10/13 02:48:38;;;;;;;;;;;;;;;9.64;80.49;99571.94;5092124;28;19915;-19
2021/10/13 02:51:03;;;;;;;;;;;;;;;9.81;80.00;99575.63;5091720;28;19912;-19
2021/10/13 02:53:35;;;;;;;;;;;;;;;9.90;80.07;99585.94;5125874;27;20310;-19
2021/10/13 02:56:19;;;;;;;;;;;;;;;9.99;79.09;99588.06;5098004;28;19919;-20
2021/10/13 02:58:53;;;;;;;;;;;;;;;10.20;78.29;99593.94;5088683;28;20429;-19
2021/10/13 03:01:19;;;;;;;;;;;;;;;10.21;77.71;99595.53;5089967;28;19935;-19
2021/10/13 03:03:48;;;;;;;;;;;;;;;9.86;78.45;99599.69;5071742;28;20303;-19
2021/10/13 03:06:14;;;;;;;;;;;;;;;10.01;78.13;99599.31;5071737;28;19918;-19
2021/10/13 03:08:39;;;;;;;;;;;;;;;9.99;79.05;99600.56;5071400;28;20014;-19
2021/10/13 03:11:04;;;;;;;;;;;;;;;9.99;78.43;99604.06;5071187;28;19995;-20
2021/10/13 03:13:30;;;;;;;;;;;;;;;9.90;77.82;99605.41;5072605;28;19927;-19
2021/10/13 03:15:55;;;;;;;;;;;;;;;9.86;78.52;99609.56;5071370;28;19916;-19
2021/10/13 03:18:21;;;;;;;;;;;;;;;10.06;78.04;99612.75;5071729;28;19916;-19
2021/10/13 03:20:47;;;;;;;;;;;;;;;9.81;78.84;99615.56;5088266;28;19916;-19
2021/10/13 03:23:13;;;;;;;;;;;;;;;9.88;78.41;99614.66;5071101;28;19947;-19
2021/10/13 03:25:38;;;;;;;;;;;;;;;10.21;78.05;99608.88;5089387;28;20664;-19
2021/10/13 03:28:03;;;;;;;;;;;;;;;9.92;79.04;99611.31;5089300;28;19919;-19
2021/10/13 03:30:29;;;;;;;;;;;;;;;9.97;78.74;99616.78;5089350;28;19977;-19
2021/10/13 03:32:54;;;;;;;;;;;;;;;10.13;79.21;99614.50;5089202;28;19916;-19
2021/10/13 03:35:26;;;;;;;;;;;;;;;10.22;77.89;99627.28;5089153;28;19920;-19
2021/10/13 03:37:52;;;;;;;;;;;;;;;9.68;78.83;99620.22;5089184;28;19911;-19
2021/10/13 03:40:17;;;;;;;;;;;;;;;9.97;77.83;99613.28;5071224;28;19961;-20
2021/10/13 03:42:43;;;;;;;;;;;;;;;9.92;78.40;99618.50;5089376;28;20378;-19
2021/10/13 03:45:11;;;;;;;;;;;;;;;9.64;80.90;99614.53;5088959;28;19985;-20
2021/10/13 03:47:36;;;;;;;;;;;;;;;9.83;80.88;99618.00;5089120;28;19938;-19
2021/10/13 03:50:01;;;;;;;;;;;;;;;9.74;80.32;99614.81;5089205;28;20376;-19
2021/10/13 03:52:26;;;;;;;;;;;;;;;9.70;80.68;99618.97;5091389;28;19919;-19
2021/10/13 03:54:52;;;;;;;;;;;;;;;9.61;80.24;99623.78;5092714;28;20027;-19
2021/10/13 03:57:17;;;;;;;;;;;;;;;9.60;80.55;99622.19;5093276;28;19916;-19
2021/10/13 03:59:42;;;;;;;;;;;;;;;9.50;81.01;99627.22;5093120;28;19931;-19
2021/10/13 04:02:07;;;;;;;;;;;;;;;9.35;82.67;99626.75;5093366;28;19919;-20
2021/10/13 04:04:33;;;;;;;;;;;;;;;9.64;81.42;99636.66;5093094;28;19959;-19
2021/10/13 04:06:58;;;;;;;;;;;;;;;9.59;81.15;99639.16;5092893;28;19962;-19
2021/10/13 04:09:23;;;;;;;;;;;;;;;9.67;80.04;99634.59;5092737;28;19912;-18
2021/10/13 04:11:49;;;;;;;;;;;;;;;9.38;81.37;99653.75;5092972;28;19920;-19
2021/10/13 04:14:14;;;;;;;;;;;;;;;9.43;81.06;99659.19;5092802;28;19912;-19
2021/10/13 04:16:39;;;;;;;;;;;;;;;9.44;81.58;99652.06;5092928;28;20370;-19
2021/10/13 04:19:05;;;;;;;;;;;;;;;9.35;82.25;99656.84;5092922;28;19912;-19
2021/10/13 04:21:30;;;;;;;;;;;;;;;9.29;82.53;99659.56;5092764;28;20409;-19
2021/10/13 04:23:55;;;;;;;;;;;;;;;9.46;81.61;99657.97;5092789;28;19912;-19
2021/10/13 04:26:20;;;;;;;;;;;;;;;9.23;81.75;99655.94;5092852;28;20438;-19
2021/10/13 04:28:46;;;;;;;;;;;;;;;9.27;81.30;99654.47;5092704;28;20001;-20
2021/10/13 04:31:11;;;;;;;;;;;;;;;9.21;82.21;99669.47;5092373;28;19966;-19
2021/10/13 04:33:37;;;;;;;;;;;;;;;9.46;81.01;99657.97;5092901;28;19920;-19
2021/10/13 04:36:02;;;;;;;;;;;;;;;9.48;80.65;99658.56;5092458;28;19939;-19
2021/10/13 04:38:27;;;;;;;;;;;;;;;9.67;79.39;99661.22;5092870;28;20010;-19
2021/10/13 04:40:52;;;;;;;;;;;;;;;9.56;79.90;99660.94;5092267;28;20002;-19
2021/10/13 04:43:18;;;;;;;;;;;;;;;9.29;81.83;99664.88;5092308;28;19916;-19
2021/10/13 04:45:43;;;;;;;;;;;;;;;9.16;83.01;99661.31;5092367;28;20403;-19
2021/10/13 04:48:08;;;;;;;;;;;;;;;9.21;82.84;99664.16;5092219;28;19912;-19
2021/10/13 04:50:34;;;;;;;;;;;;;;;9.23;83.09;99670.06;5092116;28;19916;-19
2021/10/13 04:52:59;;;;;;;;;;;;;;;9.48;81.06;99669.22;5092025;28;19916;-19
2021/10/13 04:55:24;;;;;;;;;;;;;;;9.50;80.47;99667.13;5091987;28;19916;-19
2021/10/13 04:57:49;;;;;;;;;;;;;;;9.70;81.36;99671.41;5091929;28;20303;-19
2021/10/13 05:00:15;;;;;;;;;;;;;;;9.75;80.80;99669.72;5092288;28;20299;-19
2021/10/13 05:02:40;;;;;;;;;;;;;;;10.02;79.03;99667.53;5091528;28;19973;-19
2021/10/13 05:05:06;;;;;;;;;;;;;;;9.99;79.14;99668.00;5091812;28;19916;-19
2021/10/13 05:07:31;;;;;;;;;;;;;;;10.04;79.38;99673.44;5091987;28;20009;-19
2021/10/13 05:09:56;;;;;;;;;;;;;;;10.13;78.89;99676.59;5091807;28;19912;-19
2021/10/13 05:12:21;;;;;;;;;;;;;;;10.29;78.37;99682.34;5091591;28;19919;-19
2021/10/13 05:14:47;;;;;;;;;;;;;;;10.22;79.31;99685.13;5091881;28;19924;-19
2021/10/13 05:17:12;;;;;;;;;;;;;;;10.12;80.23;99685.66;5091571;28;19954;-19
2021/10/13 05:19:37;;;;;;;;;;;;;;;10.25;80.64;99689.97;5091863;28;20304;-19
2021/10/13 05:22:03;;;;;;;;;;;;;;;10.36;80.36;99691.91;5091798;28;19916;-19
2021/10/13 05:24:28;;;;;;;;;;;;;;;10.42;79.26;99700.84;5091529;28;19912;-19
2021/10/13 05:26:54;;;;;;;;;;;;;;;10.27;79.40;99699.38;5091374;28;19955;-19
2021/10/13 05:29:20;;;;;;;;;;;;;;;10.54;78.76;99708.88;5073278;28;19942;-19
2021/10/13 05:31:45;;;;;;;;;;;;;;;10.52;78.96;99710.97;5091494;28;19927;-20
2021/10/13 05:34:10;;;;;;;;;;;;;;;10.55;79.04;99716.66;5091605;28;20785;-19
2021/10/13 05:36:35;;;;;;;;;;;;;;;10.71;78.81;99715.22;5091437;28;19919;-20
2021/10/13 05:39:01;;;;;;;;;;;;;;;10.75;78.51;99731.56;5090930;28;19916;-19
2021/10/13 05:41:26;;;;;;;;;;;;;;;10.78;77.61;99725.78;5091216;28;19916;-18
2021/10/13 05:43:51;;;;;;;;;;;;;;;10.76;77.74;99728.66;5091594;28;19916;-19
2021/10/13 05:46:17;;;;;;;;;;;;;;;10.77;77.81;99724.97;5091154;28;19912;-19
2021/10/13 05:48:42;;;;;;;;;;;;;;;11.01;75.87;99731.16;5091091;28;20368;-19
2021/10/13 05:51:07;;;;;;;;;;;;;;;10.92;74.99;99748.53;5090984;28;19951;-19
2021/10/13 05:53:32;;;;;;;;;;;;;;;11.10;75.08;99744.97;5090941;28;19935;-19
2021/10/13 05:55:58;;;;;;;;;;;;;;;11.14;76.55;99759.50;5090629;28;19926;-19
2021/10/13 05:58:25;;;;;;;;;;;;;;;11.42;76.45;99757.97;5091406;28;19951;-19
2021/10/13 06:00:50;;;;;;;;;;;;;;;11.72;73.97;99767.75;5090519;28;19935;-19
2021/10/13 06:03:15;;;;;;;;;;;;;;;11.36;73.91;99772.25;5091071;28;20368;-19
2021/10/13 06:05:41;;;;;;;;;;;;;;;11.42;74.08;99766.84;5091028;28;19955;-19
2021/10/13 06:08:06;;;;;;;;;;;;;;;11.33;73.67;99780.75;5090762;28;19956;-19
2021/10/13 06:10:31;;;;;;;;;;;;;;;11.13;74.31;99776.53;5090489;28;19912;-19
2021/10/13 06:12:56;;;;;;;;;;;;;;;11.36;74.51;99782.94;5090360;28;19912;-19
2021/10/13 06:15:23;;;;;;;;;;;;;;;11.83;72.52;99782.97;5090253;28;19969;-19
2021/10/13 06:17:49;;;;;;;;;;;;;;;12.01;72.79;99782.84;5090606;28;19912;-19
2021/10/13 06:20:14;;;;;;;;;;;;;;;12.17;72.18;99783.16;5090537;28;19916;-19
2021/10/13 06:22:39;;;;;;;;;;;;;;;12.25;70.47;99785.47;5090396;28;20700;-19
2021/10/13 06:25:05;;;;;;;;;;;;;;;12.02;72.07;99797.84;5090082;28;20371;-19
2021/10/13 06:27:30;;;;;;;;;;;;;;;12.15;73.04;99804.78;5090552;28;19916;-19
2021/10/13 06:29:56;;;;;;;;;;;;;;;12.32;71.99;99799.53;5090056;28;19916;-19
2021/10/13 06:32:21;;;;;;;;;;;;;;;12.48;71.41;99805.16;5089845;28;19920;-19
2021/10/13 06:34:46;;;;;;;;;;;;;;;12.46;71.13;99816.94;5090180;28;20354;-19
2021/10/13 06:37:11;;;;;;;;;;;;;;;12.45;70.75;99817.16;5089987;28;19912;-19
2021/10/13 06:39:37;;;;;;;;;;;;;;;12.01;69.89;99817.59;5089985;28;19955;-20
2021/10/13 06:42:03;;;;;;;;;;;;;;;12.09;71.47;99820.94;5090040;28;19981;-19
2021/10/13 06:44:28;;;;;;;;;;;;;;;11.82;72.68;99826.75;5090186;28;19908;-19
2021/10/13 06:46:54;;;;;;;;;;;;;;;11.81;72.41;99819.75;5089588;28;20351;-19
2021/10/13 06:49:19;;;;;;;;;;;;;;;12.11;72.25;99814.31;5089764;28;20441;-19
2021/10/13 06:51:44;;;;;;;;;;;;;;;12.28;73.03;99819.75;5090032;28;20356;-19
2021/10/13 06:54:10;;;;;;;;;;;;;;;12.06;72.82;99833.72;5090077;28;19935;-18
2021/10/13 06:56:35;;;;;;;;;;;;;;;12.12;73.68;99823.16;5090062;28;19927;-19
2021/10/13 06:59:01;;;;;;;;;;;;;;;11.93;72.66;99814.44;5089594;28;20378;-19
2021/10/13 07:01:26;;;;;;;;;;;;;;;12.03;73.86;99826.19;5089739;28;20277;-20
2021/10/13 07:03:51;;;;;;;;;;;;;;;12.36;72.76;99826.59;5089902;28;19916;-19
2021/10/13 07:06:16;;;;;;;;;;;;;;;12.44;71.97;99823.53;5089679;28;19911;-19
2021/10/13 07:08:42;;;;;;;;;;;;;;;12.73;71.55;99821.72;5089693;28;19966;-19
2021/10/13 07:11:09;;;;;;;;;;;;;;;12.62;70.35;99830.59;5089368;28;20014;-19
2021/10/13 07:13:34;;;;;;;;;;;;;;;12.62;70.17;99838.63;5089809;28;19916;-18
2021/10/13 07:16:00;;;;;;;;;;;;;;;12.35;69.88;99835.66;5104137;28;20268;-19
2021/10/13 07:18:25;;;;;;;;;;;;;;;12.43;67.79;99832.63;5089615;28;19916;-18
2021/10/13 07:20:51;;;;;;;;;;;;;;;12.36;66.54;99832.75;5089701;28;19943;-19
2021/10/13 07:23:16;;;;;;;;;;;;;;;12.47;69.20;99836.44;5089375;28;19912;-19
2021/10/13 07:25:41;;;;;;;;;;;;;;;12.85;68.58;99829.69;5089301;28;19990;-19
2021/10/13 07:28:07;;;;;;;;;;;;;;;12.56;68.64;99842.25;5089591;28;19919;-20
2021/10/13 07:30:32;;;;;;;;;;;;;;;12.39;69.52;99848.31;5089088;28;20299;-18
2021/10/13 07:32:58;;;;;;;;;;;;;;;12.48;67.05;99851.44;5089115;28;19972;-19
2021/10/13 07:35:23;;;;;;;;;;;;;;;12.45;67.05;99858.06;5071358;28;19916;-19
2021/10/13 07:37:49;;;;;;;;;;;;;;;12.27;67.96;99853.69;5086988;28;20003;-20
2021/10/13 07:40:14;;;;;;;;;;;;;;;12.35;66.92;99857.06;5089484;28;19926;-19
2021/10/13 07:42:39;;;;;;;;;;;;;;;12.41;66.33;99859.59;5089558;28;20431;-20
2021/10/13 07:45:05;;;;;;;;;;;;;;;12.45;66.36;99858.06;5071434;28;19977;-19
2021/10/13 07:47:30;;;;;;;;;;;;;;;12.53;67.93;99856.09;5089238;28;20284;-19
2021/10/13 07:49:56;;;;;;;;;;;;;;;12.30;66.90;99857.78;5089164;28;19920;-19
2021/10/13 07:52:21;;;;;;;;;;;;;;;12.51;66.11;99863.53;5088998;28;19934;-20
2021/10/13 07:54:46;;;;;;;;;;;;;;;12.53;67.33;99866.78;5088946;28;19912;-19
2021/10/13 07:57:12;;;;;;;;;;;;;;;12.59;66.65;99868.53;5089557;28;19923;-19
2021/10/13 07:59:37;;;;;;;;;;;;;;;12.68;66.42;99877.78;5088850;28;19943;-19
2021/10/13 08:02:03;;;;;;;;;;;;;;;12.99;64.95;99865.00;5088978;28;20290;-19
2021/10/13 08:04:29;;;;;;;;;;;;;;;12.78;65.32;99875.31;5089173;28;19912;-19
2021/10/13 08:06:54;;;;;;;;;;;;;;;12.96;65.14;99873.53;5088904;28;19969;-19
2021/10/13 08:09:19;;;;;;;;;;;;;;;13.07;65.09;99868.09;5089176;28;19919;-19
2021/10/13 08:11:45;;;;;;;;;;;;;;;12.92;63.98;99861.66;5088994;28;20341;-19
2021/10/13 08:14:11;;;;;;;;;;;;;;;12.88;64.37;99877.38;5088849;28;19920;-18
2021/10/13 08:16:36;;;;;;;;;;;;;;;13.07;63.60;99869.97;5089149;28;20435;-21
2021/10/13 08:19:01;;;;;;;;;;;;;;;12.95;63.46;99877.22;5089266;28;19912;-19
2021/10/13 08:21:26;;;;;;;;;;;;;;;12.95;64.57;99858.50;5089032;28;20392;-18
2021/10/13 08:23:52;;;;;;;;;;;;;;;13.05;62.17;99861.34;5088780;28;19915;-18
2021/10/13 08:26:17;;;;;;;;;;;;;;;13.16;62.35;99865.88;5088721;28;19974;-19
2021/10/13 08:28:43;;;;;;;;;;;;;;;13.03;63.98;99868.81;5088839;28;19912;-19
2021/10/13 08:31:09;;;;;;;;;;;;;;;13.15;63.56;99876.81;5088356;28;20476;-19
2021/10/13 08:33:34;;;;;;;;;;;;;;;13.30;65.00;99879.78;5088782;28;19973;-18
2021/10/13 08:35:59;;;;;;;;;;;;;;;13.38;61.94;99875.88;5089205;28;20018;-19
2021/10/13 08:38:24;;;;;;;;;;;;;;;13.51;62.52;99875.59;5090557;28;19941;-19
2021/10/13 08:40:50;;;;;;;;;;;;;;;13.59;63.18;99880.53;5092053;28;19916;-19
2021/10/13 08:43:15;;;;;;;;;;;;;;;13.38;64.42;99883.91;5092533;28;20307;-19
2021/10/13 08:45:40;;;;;;;;;;;;;;;13.43;64.25;99882.16;5092300;28;20010;-19
2021/10/13 08:48:06;;;;;;;;;;;;;;;13.52;64.65;99887.91;5092729;28;19915;-20
2021/10/13 08:50:32;;;;;;;;;;;;;;;13.30;62.81;99884.31;5092182;28;19994;-18
2021/10/13 08:53:06;;;;;;;;;;;;;;;13.31;62.73;99889.44;5091847;28;20404;-19
2021/10/13 08:55:32;;;;;;;;;;;;;;;13.34;63.48;99888.97;5091843;28;19939;-19
2021/10/13 08:58:10;;;;;;;;;;;;;;;13.46;63.81;99887.03;5092054;28;20369;-19
2021/10/13 09:00:35;;;;;;;;;;;;;;;13.65;61.87;99886.81;5091773;28;20007;-20
2021/10/13 09:03:01;;;;;;;;;;;;;;;13.61;62.33;99883.78;5073831;28;20014;-19
2021/10/13 09:05:26;;;;;;;;;;;;;;;13.69;62.15;99887.09;5091905;28;20342;-19
2021/10/13 09:08:01;;;;;;;;;;;;;;;13.48;59.99;99886.78;5091842;28;20033;-19
2021/10/13 09:10:28;;;;;;;;;;;;;;;13.38;61.48;99887.44;5091787;28;20436;-19
2021/10/13 09:12:53;;;;;;;;;;;;;;;13.50;61.11;99878.50;5091606;28;19934;-19
2021/10/13 09:15:22;;;;;;;;;;;;;;;13.76;59.17;99882.41;5091808;28;20323;-19
2021/10/13 09:17:56;;;;;;;;;;;;;;;13.95;60.06;99880.28;5091903;28;19912;-19
2021/10/13 09:20:26;;;;;;;;;;;;;;;14.16;59.62;99876.00;5091472;28;19968;-19
2021/10/13 09:22:58;;;;;;;;;;;;;;;14.03;62.94;99872.63;5091280;28;19920;-19
2021/10/13 09:25:23;;;;;;;;;;;;;;;14.20;60.55;99871.78;5091606;28;19912;-19
2021/10/13 09:27:49;;;;;;;;;;;;;;;14.52;58.08;99879.19;5091637;28;19912;-20
2021/10/13 09:30:14;;;;;;;;;;;;;;;14.52;58.40;99879.19;5091392;28;19916;-19
2021/10/13 09:32:40;;;;;;;;;;;;;;;14.08;57.70;99879.94;5091507;28;20326;-19
2021/10/13 09:35:05;;;;;;;;;;;;;;;13.98;59.46;99882.47;5091205;28;19916;-19
2021/10/13 09:37:47;;;;;;;;;;;;;;;13.92;58.90;99880.78;5091024;28;20446;-20
2021/10/13 09:40:12;;;;;;;;;;;;;;;13.99;59.59;99884.91;5091281;28;20429;-19
2021/10/13 09:42:38;;;;;;;;;;;;;;;14.19;59.06;99894.31;5091359;28;19916;-19
2021/10/13 09:45:04;;;;;;;;;;;;;;;14.27;59.28;99893.88;5091500;28;19912;-19
2021/10/13 09:47:30;;;;;;;;;;;;;;;14.19;59.15;99887.06;5091259;28;19919;-19
2021/10/13 09:49:55;;;;;;;;;;;;;;;14.26;59.02;99895.75;5090012;28;19912;-19
2021/10/13 09:52:26;;;;;;;;;;;;;;;14.29;59.48;99899.81;5090891;28;19943;-19
2021/10/13 09:55:01;;;;;;;;;;;;;;;14.33;58.66;99900.94;5090501;28;20014;-19
2021/10/13 09:57:27;;;;;;;;;;;;;;;14.41;59.49;99905.88;5091077;28;19918;-19
2021/10/13 09:59:58;;;;;;;;;;;;;;;14.34;58.95;99899.88;5090697;28;19914;-20
2021/10/13 10:02:24;;;;;;;;;;;;;;;14.02;58.16;99892.47;5090999;28;19912;-20
2021/10/13 10:04:49;;;;;;;;;;;;;;;13.99;57.69;99900.97;5090441;28;19916;-19
2021/10/13 10:07:14;;;;;;;;;;;;;;;14.10;58.30;99895.78;5072885;28;20013;-19
2021/10/13 10:09:40;;;;;;;;;;;;;;;14.02;57.76;99897.81;5072510;28;20383;-20
2021/10/13 10:12:06;;;;;;;;;;;;;;;14.06;59.18;99892.78;5091121;28;19912;-19
2021/10/13 10:14:31;;;;;;;;;;;;;;;13.87;58.45;99892.22;5090908;28;20038;-19
2021/10/13 10:16:56;;;;;;;;;;;;;;;14.01;59.50;99892.69;5090242;28;19951;-19
2021/10/13 10:19:22;;;;;;;;;;;;;;;14.15;59.08;99890.50;5090398;28;20276;-19
2021/10/13 10:21:54;;;;;;;;;;;;;;;14.13;59.31;99897.97;5090483;28;19995;-20
2021/10/13 10:24:29;;;;;;;;;;;;;;;14.08;58.64;99893.34;5090585;28;19962;-19
2021/10/13 10:27:13;;;;;;;;;;;;;;;14.16;58.38;99908.19;5090261;28;19912;-19
2021/10/13 10:29:39;;;;;;;;;;;;;;;14.04;59.29;99908.31;5090050;28;19961;-19
2021/10/13 10:32:06;;;;;;;;;;;;;;;14.38;59.69;99909.03;5090596;28;19920;-20
2021/10/13 10:34:31;;;;;;;;;;;;;;;14.47;59.57;99904.88;5072000;28;19920;-19
2021/10/13 10:36:58;;;;;;;;;;;;;;;14.55;56.98;99910.91;5072302;28;19922;-20
2021/10/13 10:39:43;;;;;;;;;;;;;;;14.51;58.02;99904.41;5089730;28;19919;-19
2021/10/13 10:42:08;;;;;;;;;;;;;;;14.60;57.68;99908.28;5090190;28;20393;-19
2021/10/13 10:44:33;;;;;;;;;;;;;;;14.24;58.51;99903.25;5090223;28;19959;-19
2021/10/13 10:47:02;;;;;;;;;;;;;;;14.14;58.87;99910.31;5089903;28;19916;-19
2021/10/13 10:49:43;;;;;;;;;;;;;;;14.21;59.00;99908.28;5090022;28;19923;-19
2021/10/13 10:52:08;;;;;;;;;;;;;;;14.20;58.92;99910.16;5089903;28;19916;-19
2021/10/13 10:54:33;;;;;;;;;;;;;;;14.20;58.23;99909.31;5089665;28;19926;-19
2021/10/13 10:56:59;;;;;;;;;;;;;;;14.38;59.38;99911.72;5089670;28;19915;-19
2021/10/13 10:59:30;;;;;;;;;;;;;;;14.50;58.38;99913.50;5089872;28;19955;-19
2021/10/13 11:02:06;;;;;;;;;;;;;;;14.52;57.02;99916.75;5071215;28;19912;-19
2021/10/13 11:04:31;;;;;;;;;;;;;;;14.51;58.15;99909.78;5089719;28;19922;-19
2021/10/13 11:06:56;;;;;;;;;;;;;;;14.55;58.42;99911.69;5089672;28;19916;-19
2021/10/13 11:09:22;;;;;;;;;;;;;;;14.35;58.74;99912.25;5089457;28;19970;-19
2021/10/13 11:11:49;;;;;;;;;;;;;;;14.54;57.18;99909.25;5089845;28;19916;-19
2021/10/13 11:14:27;;;;;;;;;;;;;;;14.34;59.37;99907.91;5089612;28;19961;-19
2021/10/13 11:16:54;;;;;;;;;;;;;;;14.34;56.21;99899.88;5089402;28;20402;-19
2021/10/13 11:19:28;;;;;;;;;;;;;;;14.38;56.73;99903.69;5089665;28;19912;-20
2021/10/13 11:22:03;;;;;;;;;;;;;;;14.47;55.57;99910.25;5089758;28;19920;-20
2021/10/13 11:24:29;;;;;;;;;;;;;;;14.47;55.49;99910.25;5089672;28;19962;-19
2021/10/13 11:26:54;;;;;;;;;;;;;;;14.50;55.96;99903.56;5089170;28;19916;-19
2021/10/13 11:29:24;;;;;;;;;;;;;;;14.44;54.93;99894.66;5089511;28;19916;-19
2021/10/13 11:32:00;;;;;;;;;;;;;;;14.52;57.35;99900.66;5089539;28;19920;-19
2021/10/13 11:34:26;;;;;;;;;;;;;;;14.77;54.01;99903.69;5089315;28;19944;-19
2021/10/13 11:36:53;;;;;;;;;;;;;;;14.94;54.67;99905.50;5089205;28;19974;-19
2021/10/13 11:39:19;;;;;;;;;;;;;;;15.05;54.71;99904.53;5089120;28;20391;-19
2021/10/13 11:41:44;;;;;;;;;;;;;;;14.77;54.43;99914.44;5089339;28;19912;-19
2021/10/13 11:44:10;;;;;;;;;;;;;;;14.83;55.41;99918.78;5089210;28;20380;-20
2021/10/13 11:46:35;;;;;;;;;;;;;;;14.43;55.71;99924.41;5089853;28;19931;-19
2021/10/13 11:49:04;;;;;;;;;;;;;;;14.48;55.98;99927.16;5071300;28;19935;-19
2021/10/13 11:51:29;;;;;;;;;;;;;;;14.44;56.41;99926.88;5089527;28;20356;-19
2021/10/13 11:53:55;;;;;;;;;;;;;;;14.57;56.54;99925.72;5089506;28;19923;-19
2021/10/13 11:56:20;;;;;;;;;;;;;;;14.57;56.28;99924.91;5088941;28;19966;-19
2021/10/13 11:58:45;;;;;;;;;;;;;;;14.59;55.39;99930.84;5089175;28;20011;-19
2021/10/13 12:01:14;;;;;;;;;;;;;;;14.58;55.56;99931.88;5089042;28;19939;-19
2021/10/13 12:03:40;;;;;;;;;;;;;;;14.45;56.21;99939.19;5089168;28;20399;-19
2021/10/13 12:06:05;;;;;;;;;;;;;;;14.37;54.98;99936.94;5089102;28;19912;-19
2021/10/13 12:08:33;;;;;;;;;;;;;;;14.63;55.24;99934.66;5089290;28;19951;-19
2021/10/13 12:11:05;;;;;;;;;;;;;;;14.55;54.26;99932.38;5088801;28;19912;-20
2021/10/13 12:13:31;;;;;;;;;;;;;;;14.50;54.20;99941.13;5091333;28;19978;-19
2021/10/13 12:16:00;;;;;;;;;;;;;;;14.61;55.20;99942.13;5093181;28;20012;-19
2021/10/13 12:18:26;;;;;;;;;;;;;;;14.74;54.80;99935.59;5092965;28;19944;-19
2021/10/13 12:20:52;;;;;;;;;;;;;;;14.83;54.70;99934.91;5092739;28;19912;-19
2021/10/13 12:23:18;;;;;;;;;;;;;;;14.74;55.67;99936.38;5092672;28;19912;-19
2021/10/13 12:25:43;;;;;;;;;;;;;;;14.70;53.85;99937.94;5092695;28;19961;-19
2021/10/13 12:28:16;;;;;;;;;;;;;;;14.73;54.74;99940.16;5092830;28;19912;-19
2021/10/13 12:30:41;;;;;;;;;;;;;;;14.55;53.83;99938.53;5092951;28;19912;-20
2021/10/13 12:33:18;;;;;;;;;;;;;;;14.75;54.42;99939.88;5092634;28;20277;-19
2021/10/13 12:35:43;;;;;;;;;;;;;;;14.89;52.73;99935.75;5092240;28;20007;-19
2021/10/13 12:38:13;;;;;;;;;;;;;;;15.51;51.19;99920.28;5091397;28;20015;-19
2021/10/13 12:40:38;;;;;;;;;;;;;;;15.76;48.75;99919.75;5074220;28;19912;-19
2021/10/13 12:43:19;;;;;;;;;;;;;;;15.51;50.26;99928.34;5091999;28;20380;-19
2021/10/13 12:45:44;;;;;;;;;;;;;;;15.25;50.40;99914.69;5092556;28;19920;-21
2021/10/13 12:48:17;;;;;;;;;;;;;;;15.55;49.71;99924.91;5092458;28;19916;-18